createdAt,value
2023-05-07T00:01:00.074Z,37.45
2023-05-07T00:03:27.499Z,37.76
2023-05-07T00:05:54.492Z,37.67
2023-05-07T00:08:22.662Z,37.90
2023-05-07T00:10:49.529Z,37.85
2023-05-07T00:13:16.937Z,37.85
2023-05-07T00:15:43.740Z,37.81
2023-05-07T00:18:10.656Z,37.88
2023-05-07T00:20:37.414Z,37.90
2023-05-07T00:23:04.357Z,37.85
2023-05-07T00:25:31.166Z,37.68
2023-05-07T00:28:03.119Z,37.55
2023-05-07T00:30:29.924Z,37.59
2023-05-07T00:32:56.734Z,37.65
2023-05-07T00:35:23.670Z,37.67
2023-05-07T00:37:50.595Z,37.70
2023-05-07T00:40:17.463Z,37.87
2023-05-07T00:42:47.558Z,37.92
2023-05-07T00:45:14.675Z,37.82
2023-05-07T00:47:42.055Z,37.67
2023-05-07T00:50:10.754Z,37.93
2023-05-07T00:52:38.143Z,38.91
2023-05-07T00:55:07.629Z,39.49
2023-05-07T00:57:38.363Z,39.45
2023-05-07T01:00:06.136Z,39.59
2023-05-07T01:02:34.028Z,39.41
2023-05-07T01:05:01.246Z,39.42
2023-05-07T01:07:32.514Z,39.33
2023-05-07T01:09:59.327Z,39.19
2023-05-07T01:12:26.197Z,39.17
2023-05-07T01:14:53.935Z,39.11
2023-05-07T01:17:21.046Z,39.07
2023-05-07T01:19:49.439Z,39.14
2023-05-07T01:22:23.837Z,39.19
2023-05-07T01:24:50.694Z,39.44
2023-05-07T01:27:17.485Z,39.48
2023-05-07T01:29:44.300Z,39.41
2023-05-07T01:32:11.751Z,40.08
2023-05-07T01:34:39.108Z,39.79
2023-05-07T01:37:06.246Z,39.72
2023-05-07T01:39:33.429Z,40.05
2023-05-07T01:42:02.319Z,40.57
2023-05-07T01:44:29.740Z,40.66
2023-05-07T01:46:57.432Z,40.99
2023-05-07T01:49:24.949Z,41.02
2023-05-07T01:51:51.689Z,40.69
2023-05-07T01:54:18.553Z,40.92
2023-05-07T01:56:49.376Z,41.15
2023-05-07T01:59:16.264Z,41.18
2023-05-07T02:01:43.578Z,41.02
2023-05-07T02:04:10.609Z,40.87
2023-05-07T02:06:37.463Z,40.92
2023-05-07T02:09:05.997Z,41.06
2023-05-07T02:11:32.857Z,41.04
2023-05-07T02:14:00.060Z,40.85
2023-05-07T02:16:26.900Z,41.29
2023-05-07T02:18:55.374Z,40.92
2023-05-07T02:21:22.255Z,40.19
2023-05-07T02:23:49.472Z,39.96
2023-05-07T02:26:16.497Z,40.05
2023-05-07T02:28:43.299Z,40.20
2023-05-07T02:31:11.501Z,40.49
2023-05-07T02:33:38.930Z,40.55
2023-05-07T02:36:09.061Z,40.76
2023-05-07T02:38:37.392Z,40.92
2023-05-07T02:41:05.366Z,41.30
2023-05-07T02:43:34.881Z,40.97
2023-05-07T02:46:08.422Z,41.01
2023-05-07T02:48:37.454Z,41.16
2023-05-07T02:51:04.740Z,41.05
2023-05-07T02:53:32.784Z,41.13
2023-05-07T02:56:00.604Z,41.23
2023-05-07T02:58:27.472Z,41.25
2023-05-07T03:00:55.330Z,41.39
2023-05-07T03:03:42.436Z,41.38
2023-05-07T03:06:09.399Z,41.37
2023-05-07T03:08:37.256Z,41.55
2023-05-07T03:11:05.418Z,41.50
2023-05-07T03:13:32.230Z,41.44
2023-05-07T03:15:58.980Z,41.46
2023-05-07T03:18:26.172Z,41.39
2023-05-07T03:20:53.588Z,41.30
2023-05-07T03:23:22.437Z,41.45
2023-05-07T03:25:51.547Z,41.45
2023-05-07T03:28:18.542Z,41.38
2023-05-07T03:30:51.201Z,41.15
2023-05-07T03:33:18.181Z,41.19
2023-05-07T03:35:45.261Z,41.34
2023-05-07T03:38:16.052Z,41.41
2023-05-07T03:40:42.945Z,41.45
2023-05-07T03:43:12.543Z,41.65
2023-05-07T03:45:41.620Z,41.68
2023-05-07T03:48:15.450Z,41.64
2023-05-07T03:50:43.092Z,41.65
2023-05-07T03:53:10.533Z,41.47
2023-05-07T03:55:39.765Z,41.40
2023-05-07T03:58:06.845Z,41.44
2023-05-07T04:00:38.588Z,41.54
2023-05-07T04:03:08.768Z,41.50
2023-05-07T04:05:35.915Z,41.41
2023-05-07T04:08:03.791Z,41.42
2023-05-07T04:10:38.420Z,41.33
2023-05-07T04:13:08.710Z,41.32
2023-05-07T04:15:36.693Z,41.23
2023-05-07T04:18:06.759Z,40.75
2023-05-07T04:20:35.244Z,41.00
2023-05-07T04:23:02.771Z,41.28
2023-05-07T04:25:31.198Z,41.03
2023-05-07T04:28:03.482Z,41.00
2023-05-07T04:30:31.021Z,41.03
2023-05-07T04:32:59.425Z,41.03
2023-05-07T04:35:27.744Z,41.17
2023-05-07T04:37:54.948Z,41.08
2023-05-07T04:40:21.812Z,41.06
2023-05-07T04:42:48.806Z,41.18
2023-05-07T04:45:15.789Z,41.19
2023-05-07T04:47:43.720Z,41.25
2023-05-07T04:50:11.388Z,41.40
2023-05-07T04:52:39.175Z,41.47
2023-05-07T04:55:08.833Z,41.21
2023-05-07T04:57:41.038Z,41.23
2023-05-07T05:00:12.298Z,41.01
2023-05-07T05:02:40.621Z,40.84
2023-05-07T05:05:09.050Z,40.83
2023-05-07T05:07:36.007Z,40.83
2023-05-07T05:10:03.714Z,40.47
2023-05-07T05:12:32.435Z,40.58
2023-05-07T05:14:59.303Z,40.41
2023-05-07T05:17:26.131Z,40.09
2023-05-07T05:19:52.954Z,39.89
2023-05-07T05:22:22.027Z,40.04
2023-05-07T05:24:49.855Z,39.63
2023-05-07T05:27:16.682Z,39.31
2023-05-07T05:29:43.483Z,39.47
2023-05-07T05:32:10.803Z,39.08
2023-05-07T05:34:37.805Z,39.14
2023-05-07T05:37:06.156Z,38.70
2023-05-07T05:39:33.027Z,38.61
2023-05-07T05:42:00.239Z,38.09
2023-05-07T05:44:27.721Z,38.00
2023-05-07T05:46:58.040Z,38.17
2023-05-07T05:49:25.703Z,38.20
2023-05-07T05:51:52.613Z,37.85
2023-05-07T05:54:21.020Z,37.22
2023-05-07T05:56:48.284Z,36.85
2023-05-07T05:59:15.700Z,36.69
2023-05-07T06:01:42.740Z,36.76
2023-05-07T06:04:10.825Z,36.69
2023-05-07T06:06:37.853Z,36.02
2023-05-07T06:09:05.388Z,35.52
2023-05-07T06:11:37.608Z,35.41
2023-05-07T06:14:05.565Z,35.14
2023-05-07T06:16:33.381Z,35.06
2023-05-07T06:19:01.263Z,34.67
2023-05-07T06:21:28.473Z,34.66
2023-05-07T06:23:55.495Z,34.95
2023-05-07T06:26:22.610Z,34.80
2023-05-07T06:28:49.775Z,34.19
2023-05-07T06:31:23.651Z,33.33
2023-05-07T06:33:55.822Z,33.36
2023-05-07T06:36:23.140Z,32.80
2023-05-07T06:38:50.540Z,32.13
2023-05-07T06:41:17.950Z,32.22
2023-05-07T06:43:45.067Z,32.39
2023-05-07T06:46:25.234Z,32.25
2023-05-07T06:48:53.162Z,32.39
2023-05-07T06:51:20.339Z,31.83
2023-05-07T06:53:47.663Z,31.77
2023-05-07T06:56:15.317Z,31.73
2023-05-07T06:58:42.309Z,31.96
2023-05-07T07:01:09.790Z,31.88
2023-05-07T07:03:37.064Z,31.71
2023-05-07T07:06:04.145Z,31.58
2023-05-07T07:08:31.289Z,30.94
2023-05-07T07:10:58.385Z,30.63
2023-05-07T07:13:25.889Z,30.23
2023-05-07T07:15:55.255Z,29.69
2023-05-07T07:18:23.362Z,29.85
2023-05-07T07:20:54.347Z,29.63
2023-05-07T07:23:23.976Z,29.21
2023-05-07T07:25:51.063Z,28.48
2023-05-07T07:28:21.490Z,28.72
2023-05-07T07:30:48.771Z,28.73
2023-05-07T07:33:17.102Z,28.32
2023-05-07T07:35:44.778Z,27.91
2023-05-07T07:38:11.887Z,27.85
2023-05-07T07:40:40.240Z,28.24
2023-05-07T07:43:07.307Z,28.48
2023-05-07T07:45:35.392Z,28.22
2023-05-07T07:48:02.472Z,27.90
2023-05-07T07:50:43.481Z,27.87
2023-05-07T07:53:13.947Z,27.71
2023-05-07T07:55:41.290Z,27.86
2023-05-07T07:58:08.291Z,27.95
2023-05-07T08:00:36.109Z,28.15
2023-05-07T08:03:03.885Z,27.84
2023-05-07T08:05:34.082Z,27.60
2023-05-07T08:08:00.993Z,27.36
2023-05-07T08:10:35.349Z,27.31
2023-05-07T08:13:05.954Z,27.23
2023-05-07T08:15:34.135Z,26.92
2023-05-07T08:18:02.579Z,26.92
2023-05-07T08:20:30.879Z,27.55
2023-05-07T08:22:58.105Z,27.81
2023-05-07T08:25:26.979Z,28.19
2023-05-07T08:27:54.795Z,27.80
2023-05-07T08:30:24.276Z,27.47
2023-05-07T08:32:51.827Z,27.39
2023-05-07T08:35:19.134Z,27.21
2023-05-07T08:37:47.528Z,26.76
2023-05-07T08:40:16.403Z,26.55
2023-05-07T08:42:43.832Z,26.91
2023-05-07T08:45:11.715Z,27.07
2023-05-07T08:47:47.972Z,27.23
2023-05-07T08:50:16.097Z,26.81
2023-05-07T08:52:43.552Z,26.66
2023-05-07T08:55:11.214Z,26.54
2023-05-07T08:57:40.358Z,26.79
2023-05-07T09:00:10.173Z,27.05
2023-05-07T09:02:37.993Z,26.48
2023-05-07T09:05:06.355Z,26.36
2023-05-07T09:07:33.846Z,26.11
2023-05-07T09:10:05.988Z,26.29
2023-05-07T09:12:35.800Z,26.27
2023-05-07T09:15:05.698Z,26.44
2023-05-07T09:17:32.992Z,26.64
2023-05-07T09:20:06.120Z,25.89
2023-05-07T09:22:36.759Z,24.95
2023-05-07T09:25:07.418Z,24.79
2023-05-07T09:27:37.345Z,24.38
2023-05-07T09:30:07.687Z,24.54
2023-05-07T09:32:41.197Z,24.50
2023-05-07T09:35:22.447Z,24.91
2023-05-07T09:38:03.085Z,24.56
2023-05-07T09:40:33.502Z,24.92
2023-05-07T09:43:11.788Z,25.54
2023-05-07T09:45:40.117Z,24.93
2023-05-07T09:48:07.921Z,25.36
2023-05-07T09:50:50.471Z,25.60
2023-05-07T09:53:18.539Z,25.71
2023-05-07T09:55:46.248Z,25.48
2023-05-07T09:58:13.430Z,25.37
2023-05-07T10:00:40.660Z,25.78
2023-05-07T10:03:09.169Z,25.64
2023-05-07T10:05:45.694Z,25.41
2023-05-07T10:08:15.513Z,25.48
2023-05-07T10:10:42.403Z,24.73
2023-05-07T10:13:11.995Z,24.90
2023-05-07T10:15:41.527Z,24.80
2023-05-07T10:18:10.203Z,24.19
2023-05-07T10:20:38.139Z,24.43
2023-05-07T10:23:09.040Z,24.43
2023-05-07T10:25:42.154Z,24.50
2023-05-07T10:28:15.551Z,24.82
2023-05-07T10:31:22.855Z,24.70
2023-05-07T10:33:51.258Z,24.33
2023-05-07T10:36:19.068Z,24.25
2023-05-07T10:38:47.209Z,24.24
2023-05-07T10:41:15.758Z,24.36
2023-05-07T10:43:44.554Z,24.59
2023-05-07T10:46:17.401Z,24.31
2023-05-07T10:49:06.636Z,24.21
2023-05-07T10:51:47.911Z,24.54
2023-05-07T10:54:20.399Z,24.08
2023-05-07T10:56:55.299Z,24.31
2023-05-07T10:59:32.136Z,24.64
2023-05-07T11:02:04.687Z,24.00
2023-05-07T11:04:39.214Z,23.91
2023-05-07T11:07:32.584Z,23.66
2023-05-07T11:10:13.394Z,23.69
2023-05-07T11:12:52.516Z,23.41
2023-05-07T11:15:37.308Z,23.77
2023-05-07T11:18:06.046Z,23.89
2023-05-07T11:20:53.184Z,23.67
2023-05-07T11:23:36.791Z,22.94
2023-05-07T11:26:17.072Z,22.68
2023-05-07T11:28:44.237Z,23.15
2023-05-07T11:31:11.540Z,22.95
2023-05-07T11:33:39.749Z,23.60
2023-05-07T11:36:17.472Z,23.63
2023-05-07T11:38:47.303Z,23.48
2023-05-07T11:41:14.129Z,23.49
2023-05-07T11:43:57.711Z,23.51
2023-05-07T11:46:24.994Z,23.42
2023-05-07T11:48:52.096Z,23.39
2023-05-07T11:51:20.707Z,23.76
2023-05-07T11:53:49.321Z,24.13
2023-05-07T11:56:17.383Z,23.95
2023-05-07T11:58:44.844Z,23.56
2023-05-07T12:01:12.506Z,23.23
2023-05-07T12:03:44.491Z,23.00
2023-05-07T12:06:12.718Z,23.36
2023-05-07T12:08:41.011Z,23.32
2023-05-07T12:11:16.885Z,22.97
2023-05-07T12:13:44.005Z,22.88
2023-05-07T12:16:11.012Z,22.68
2023-05-07T12:18:37.972Z,22.92
2023-05-07T12:21:08.237Z,22.72
2023-05-07T12:23:36.337Z,22.82
2023-05-07T12:26:06.486Z,23.47
2023-05-07T12:28:39.243Z,23.28
2023-05-07T12:31:06.553Z,23.01
2023-05-07T12:33:33.626Z,23.73
2023-05-07T12:36:08.941Z,23.06
2023-05-07T12:38:37.946Z,23.51
2023-05-07T12:41:07.575Z,23.20
2023-05-07T12:43:35.886Z,23.02
2023-05-07T12:46:07.053Z,22.33
2023-05-07T12:48:34.445Z,22.13
2023-05-07T12:51:02.175Z,21.93
2023-05-07T12:53:31.825Z,23.21
2023-05-07T12:56:00.324Z,24.07
2023-05-07T12:58:28.960Z,23.50
2023-05-07T13:01:01.266Z,23.13
2023-05-07T13:03:33.532Z,23.35
2023-05-07T13:06:30.820Z,23.69
2023-05-07T13:08:57.626Z,23.50
2023-05-07T13:11:24.477Z,23.23
2023-05-07T13:13:51.327Z,22.77
2023-05-07T13:16:18.350Z,22.97
2023-05-07T13:18:49.357Z,22.96
2023-05-07T13:21:17.466Z,22.69
2023-05-07T13:23:44.680Z,22.82
2023-05-07T13:26:25.514Z,23.30
2023-05-07T13:28:54.983Z,23.71
2023-05-07T13:31:22.071Z,24.08
2023-05-07T13:33:48.970Z,24.43
2023-05-07T13:36:16.267Z,24.38
2023-05-07T13:38:43.020Z,24.17
2023-05-07T13:41:12.970Z,24.07
2023-05-07T13:43:39.929Z,23.72
2023-05-07T13:46:06.711Z,24.00
2023-05-07T13:48:34.199Z,24.13
2023-05-07T13:51:01.335Z,23.61
2023-05-07T13:53:28.115Z,24.33
2023-05-07T13:55:54.890Z,24.32
2023-05-07T13:58:26.472Z,24.63
2023-05-07T14:00:55.565Z,24.87
2023-05-07T14:03:23.293Z,24.72
2023-05-07T14:05:50.667Z,24.89
2023-05-07T14:08:21.249Z,24.82
2023-05-07T14:10:48.298Z,24.96
2023-05-07T14:13:15.532Z,25.34
2023-05-07T14:15:46.714Z,25.11
2023-05-07T14:18:13.537Z,25.17
2023-05-07T14:20:40.821Z,25.22
2023-05-07T14:23:07.921Z,25.77
2023-05-07T14:25:35.393Z,25.40
2023-05-07T14:28:02.265Z,25.26
2023-05-07T14:30:29.731Z,25.55
2023-05-07T14:32:56.687Z,25.98
2023-05-07T14:35:23.946Z,26.03
2023-05-07T14:37:50.985Z,25.36
2023-05-07T14:40:19.125Z,24.99
2023-05-07T14:42:45.978Z,25.26
2023-05-07T14:45:13.522Z,25.49
2023-05-07T14:47:40.701Z,25.48
2023-05-07T14:50:08.972Z,25.61
2023-05-07T14:52:36.491Z,26.22
2023-05-07T14:55:03.802Z,26.27
2023-05-07T14:57:35.342Z,26.31
2023-05-07T15:00:05.090Z,26.78
2023-05-07T15:02:32.267Z,27.17
2023-05-07T15:04:59.722Z,26.73
2023-05-07T15:07:26.559Z,26.49
2023-05-07T15:09:53.724Z,26.61
2023-05-07T15:12:20.645Z,26.28
2023-05-07T15:14:47.855Z,26.23
2023-05-07T15:17:15.684Z,26.13
2023-05-07T15:19:42.457Z,26.18
2023-05-07T15:22:09.246Z,25.94
2023-05-07T15:24:37.308Z,25.61
2023-05-07T15:27:04.301Z,25.49
2023-05-07T15:29:31.102Z,25.66
2023-05-07T15:31:58.143Z,25.57
2023-05-07T15:34:25.143Z,25.60
2023-05-07T15:36:52.947Z,25.73
2023-05-07T15:39:20.879Z,25.77
2023-05-07T15:41:48.730Z,25.83
2023-05-07T15:44:18.901Z,25.90
2023-05-07T15:46:46.125Z,26.04
2023-05-07T15:49:13.683Z,25.83
2023-05-07T15:51:40.893Z,25.93
2023-05-07T15:54:07.999Z,26.07
2023-05-07T15:56:35.101Z,26.05
2023-05-07T15:59:02.028Z,25.90
2023-05-07T16:01:29.506Z,25.77
2023-05-07T16:03:57.515Z,25.97
2023-05-07T16:06:24.321Z,25.90
2023-05-07T16:08:51.134Z,25.80
2023-05-07T16:11:17.941Z,25.81
2023-05-07T16:13:45.002Z,25.79
2023-05-07T16:16:12.648Z,25.86
2023-05-07T16:18:39.586Z,26.02
2023-05-07T16:21:06.372Z,26.23
2023-05-07T16:23:33.330Z,26.32
2023-05-07T16:26:00.445Z,26.65
2023-05-07T16:28:27.235Z,26.62
2023-05-07T16:30:54.038Z,26.52
2023-05-07T16:33:22.228Z,26.64
2023-05-07T16:35:52.816Z,26.67
2023-05-07T16:38:20.076Z,26.57
2023-05-07T16:40:46.993Z,26.84
2023-05-07T16:43:16.235Z,26.99
2023-05-07T16:45:43.022Z,27.34
2023-05-07T16:48:10.426Z,27.37
2023-05-07T16:50:37.560Z,27.46
2023-05-07T16:53:06.864Z,27.47
2023-05-07T16:55:40.760Z,27.63
2023-05-07T16:58:09.622Z,27.73
2023-05-07T17:00:49.215Z,27.90
2023-05-07T17:03:18.216Z,27.89
2023-05-07T17:05:45.244Z,27.88
2023-05-07T17:08:13.078Z,28.10
2023-05-07T17:10:40.100Z,28.09
2023-05-07T17:13:07.112Z,28.16
2023-05-07T17:15:34.389Z,28.08
2023-05-07T17:18:01.418Z,28.04
2023-05-07T17:20:28.870Z,28.00
2023-05-07T17:22:55.756Z,27.98
2023-05-07T17:25:22.958Z,28.12
2023-05-07T17:27:50.013Z,28.10
2023-05-07T17:30:17.119Z,28.04
2023-05-07T17:32:44.457Z,28.14
2023-05-07T17:35:11.327Z,28.03
2023-05-07T17:37:38.580Z,28.26
2023-05-07T17:40:06.923Z,28.32
2023-05-07T17:42:34.580Z,28.31
2023-05-07T17:45:01.394Z,28.31
2023-05-07T17:47:28.497Z,28.40
2023-05-07T17:49:55.455Z,28.43
2023-05-07T17:52:23.791Z,28.44
2023-05-07T17:54:50.662Z,28.54
2023-05-07T17:57:17.494Z,28.64
2023-05-07T17:59:44.371Z,28.66
2023-05-07T18:02:11.828Z,28.76
2023-05-07T18:04:38.654Z,29.04
2023-05-07T18:07:05.414Z,29.34
2023-05-07T18:09:32.278Z,29.55
2023-05-07T18:11:59.474Z,29.55
2023-05-07T18:14:26.407Z,29.56
2023-05-07T18:16:53.780Z,29.53
2023-05-07T18:19:21.515Z,29.88
2023-05-07T18:21:48.748Z,29.69
2023-05-07T18:24:15.828Z,29.84
2023-05-07T18:26:42.820Z,29.85
2023-05-07T18:29:09.871Z,29.95
2023-05-07T18:31:38.015Z,30.10
2023-05-07T18:34:06.626Z,30.19
2023-05-07T18:36:36.590Z,30.22
2023-05-07T18:39:03.547Z,30.22
2023-05-07T18:41:30.799Z,30.16
2023-05-07T18:43:58.157Z,30.21
2023-05-07T18:46:25.693Z,30.22
2023-05-07T18:48:57.220Z,30.44
2023-05-07T18:51:26.812Z,30.35
2023-05-07T18:53:55.498Z,30.38
2023-05-07T18:56:23.948Z,30.38
2023-05-07T18:58:51.032Z,30.51
2023-05-07T19:01:17.894Z,30.41
2023-05-07T19:03:44.710Z,30.40
2023-05-07T19:06:11.672Z,30.51
2023-05-07T19:08:39.350Z,30.51
2023-05-07T19:11:06.280Z,30.57
2023-05-07T19:13:33.933Z,30.64
2023-05-07T19:16:00.952Z,30.95
2023-05-07T19:18:29.168Z,31.00
2023-05-07T19:20:56.240Z,30.86
2023-05-07T19:23:23.455Z,30.86
2023-05-07T19:25:53.479Z,31.07
2023-05-07T19:28:20.944Z,31.23
2023-05-07T19:30:52.672Z,31.09
2023-05-07T19:33:23.439Z,31.09
2023-05-07T19:35:58.226Z,31.24
2023-05-07T19:38:27.424Z,31.44
2023-05-07T19:40:57.578Z,31.27
2023-05-07T19:43:25.459Z,31.21
2023-05-07T19:45:52.713Z,31.26
2023-05-07T19:48:20.409Z,31.36
2023-05-07T19:50:48.147Z,31.22
2023-05-07T19:53:14.940Z,31.10
2023-05-07T19:55:41.993Z,31.30
2023-05-07T19:58:09.431Z,31.15
2023-05-07T20:00:36.317Z,31.21
2023-05-07T20:03:03.488Z,31.29
2023-05-07T20:05:30.281Z,31.51
2023-05-07T20:07:58.027Z,31.30
2023-05-07T20:10:24.823Z,31.35
2023-05-07T20:12:51.658Z,31.41
2023-05-07T20:15:19.260Z,31.57
2023-05-07T20:17:46.176Z,31.57
2023-05-07T20:20:13.173Z,31.79
2023-05-07T20:22:45.617Z,31.89
2023-05-07T20:25:15.412Z,32.01
2023-05-07T20:27:42.292Z,32.08
2023-05-07T20:30:10.291Z,32.14
2023-05-07T20:32:38.003Z,32.55
2023-05-07T20:35:06.180Z,32.48
2023-05-07T20:37:34.523Z,32.61
2023-05-07T20:40:02.676Z,32.53
2023-05-07T20:42:30.401Z,32.81
2023-05-07T20:44:57.207Z,32.89
2023-05-07T20:47:24.020Z,32.93
2023-05-07T20:49:51.990Z,33.09
2023-05-07T20:52:19.224Z,32.98
2023-05-07T20:54:47.040Z,33.06
2023-05-07T20:57:13.949Z,32.98
2023-05-07T20:59:44.827Z,32.93
2023-05-07T21:02:12.607Z,32.81
2023-05-07T21:04:39.429Z,32.78
2023-05-07T21:07:07.085Z,32.77
2023-05-07T21:09:33.917Z,32.66
2023-05-07T21:12:01.177Z,32.54
2023-05-07T21:14:28.499Z,32.68
2023-05-07T21:16:56.914Z,32.64
2023-05-07T21:19:23.794Z,32.67
2023-05-07T21:21:50.616Z,32.52
2023-05-07T21:24:18.609Z,32.55
2023-05-07T21:26:45.358Z,32.80
2023-05-07T21:29:12.151Z,32.70
2023-05-07T21:31:39.441Z,32.78
2023-05-07T21:34:07.391Z,32.77
2023-05-07T21:36:34.461Z,32.71
2023-05-07T21:39:01.321Z,32.85
2023-05-07T21:41:28.106Z,32.95
2023-05-07T21:43:54.973Z,32.88
2023-05-07T21:46:21.906Z,33.12
2023-05-07T21:48:48.744Z,33.01
2023-05-07T21:51:15.589Z,32.90
2023-05-07T21:53:42.440Z,33.00
2023-05-07T21:56:10.501Z,32.94
2023-05-07T21:58:37.557Z,32.86
2023-05-07T22:01:05.063Z,32.90
2023-05-07T22:03:32.318Z,33.04
2023-05-07T22:06:00.304Z,33.19
2023-05-07T22:08:29.998Z,33.16
2023-05-07T22:10:57.111Z,33.06
2023-05-07T22:13:24.172Z,33.21
2023-05-07T22:15:57.211Z,33.40
2023-05-07T22:18:25.826Z,33.61
2023-05-07T22:20:52.755Z,33.82
2023-05-07T22:23:22.004Z,33.92
2023-05-07T22:25:48.863Z,33.97
2023-05-07T22:28:16.344Z,34.10
2023-05-07T22:30:43.296Z,34.37
2023-05-07T22:33:10.144Z,34.18
2023-05-07T22:35:36.989Z,34.37
2023-05-07T22:38:03.733Z,34.29
2023-05-07T22:40:31.313Z,34.16
2023-05-07T22:42:58.107Z,34.25
2023-05-07T22:45:25.063Z,34.42
2023-05-07T22:47:52.553Z,34.55
2023-05-07T22:50:19.589Z,34.45
2023-05-07T22:52:46.379Z,34.42
2023-05-07T22:55:13.127Z,34.41
2023-05-07T22:57:40.132Z,34.30
2023-05-07T23:00:08.014Z,34.46
2023-05-07T23:02:36.047Z,34.56
2023-05-07T23:05:03.201Z,34.71
2023-05-07T23:07:30.187Z,34.68
2023-05-07T23:09:57.057Z,34.46
2023-05-07T23:12:23.824Z,34.52
2023-05-07T23:14:50.718Z,34.67
2023-05-07T23:17:18.037Z,34.69
2023-05-07T23:19:45.783Z,34.56
2023-05-07T23:22:15.393Z,34.37
2023-05-07T23:24:42.254Z,34.34
2023-05-07T23:27:10.358Z,34.39
2023-05-07T23:29:37.403Z,33.92
2023-05-07T23:32:04.338Z,34.34
2023-05-07T23:34:31.133Z,34.13
2023-05-07T23:36:57.993Z,34.11
2023-05-07T23:39:24.766Z,34.30
2023-05-07T23:41:51.481Z,33.90
2023-05-07T23:44:18.670Z,33.92
2023-05-07T23:46:45.624Z,34.04
2023-05-07T23:49:12.380Z,33.99
2023-05-07T23:51:39.304Z,33.91
2023-05-07T23:54:06.741Z,33.89
2023-05-07T23:56:34.618Z,33.98
2023-05-07T23:59:01.448Z,33.97
